NCAR-RAP Real-Time Weather Data

Output produced by METARs form (12 August 2020  17:39 UTC)
found at http://weather.rap.ucar.edu/surface/
 
KTXK 121733Z 16005KT 8SM RA BKN110 22/22 A3004 RMK AO2 LTG DSNT ALQDS TSB1658E13 P0012 T02220222
KTXK 121719Z VRB03KT 5SM VCTS RA BR SCT090 OVC110 22/22 A3005 RMK AO2 LTG DSNT S-NW TSB1658E13 P0009 T02220222
KTXK 121704Z 15006KT 5SM +TSRA BR BKN090 BKN110 22/22 A3005 RMK AO2 LTG DSNT ALQDS TSB1658 P0004 T02170217
KTXK 121653Z 14008KT 5SM VCTS RA BR FEW080 BKN090 OVC110 22/22 A3005 RMK AO2 LTG DSNT ALQDS SLP171 P0019 T02170217
KTXK 121651Z 14007KT 5SM VCTS RA BR FEW075 BKN095 OVC120 21/21 A3005 RMK AO2 LTG DSNT ALQDS P0019
KTXK 121624Z 12005KT 4SM RA BR BKN060 BKN075 OVC095 21/21 A3007 RMK AO2 LTG DSNT ALQDS P0009 T02110211
KTXK 121602Z 16006KT 4SM VCTS RA BR BKN060 BKN075 OVC100 22/21 A3007 RMK AO2 LTG DSNT SW-N P0003 T02170211
KTXK 121553Z 14007KT 3SM +RA BR BKN055 BKN075 OVC100 22/21 A3006 RMK AO2 LTG DSNT SW-N TSB36E51 SLP174 P0025 T02170211
KTXK 121536Z 17009KT 2 1/2SM +TSRA BR BKN060 OVC085 22/21 A3006 RMK AO2 LTG DSNT SW-N TSB36 P0018 T02170211
KTXK 121532Z 18008KT 3SM VCTS +RA BR SCT065 BKN090 OVC100 22/22 A3007 RMK AO2 LTG DSNT SW-N P0015 T02170217
KTXK 121516Z 14006KT 4SM +RA BR SCT065 BKN090 OVC110 22/22 A3005 RMK AO2 LTG DSNT S-NW P0009 T02170217
KTXK 121456Z 13005KT 6SM VCTS RA BR FEW050 OVC100 22/22 A3005 RMK AO2 LTG DSNT SW-NW P0001 T02170217
KTXK 121453Z 13006KT 7SM RA FEW046 OVC100 22/22 A3005 RMK AO2 LTG DSNT SW-NW TSE1358 SLP170 P0085 60545 T02170217 50006
KTXK 121436Z 14008KT 4SM RA BR BKN032 OVC100 22/22 A3004 RMK AO2 LTG DSNT ALQDS TSE1358 P0081 T02170217
KTXK 121430Z 14008KT 2SM VCTS +RA BR OVC032 22/22 A3004 RMK AO2 LTG DSNT ALQDS TSE1358 P0080 T02170217
KTXK 121426Z 14007KT 1 1/2SM VCTS +RA BR OVC028 22/22 A3004 RMK AO2 LTG DSNT ALQDS TSE1358 PRESFR P0078 T02170217
KTXK 121409Z 00000KT 1SM VCTS +RA BR OVC024 22/22 A3006 RMK AO2 LTG DSNT ALQDS TSE1358 P0044 T02170217
KTXK 121359Z 00000KT 3/4SM VCTS +RA BR OVC024 22/22 A3006 RMK AO2 LTG DSNT ALQDS TSE58 P0017 T02170217
KTXK 121353Z 05004KT 1SM +TSRA BR OVC026 22/22 A3006 RMK AO2 TSB1256 SLP174 P0207 T02170217
KTXK 121332Z 05005KT 1SM +TSRA BR VV016 22/22 A3003 RMK AO2 TSB1256 P0159 T02170217
KTXK 121323Z 07006KT 3/4SM +TSRA BR VV014 21/21 A3004 RMK AO2 TSB1256 P0134 T02110211
KTXK 121305Z 04008KT 3/4SM +TSRA BR VV017 21/21 A3004 RMK AO2 TSB1256 P0048 T02110211
KTXK 121256Z 05008KT 1 1/2SM +TSRA BR OVC019 21/21 A3004 RMK AO2 TSB56 P0004 T02110211
KTXK 121253Z 05009KT 1 1/4SM +RA BR OVC019 21/21 A3004 RMK AO2 TSE50 SLP169 P0253 T02110211
KTXK 121251Z 05009KT 1SM +RA BR VV016 21/21 A3004 RMK AO2 TSE50 P0251
KTXK 121248Z 06008KT 3/4SM +TSRA BR VV014 21/21 A3003 RMK AO2 P0245
KTXK 121236Z VRB05KT 1SM +TSRA BR VV012 21/21 A3005 RMK AO2 PRESRR P0188 T02110211
KTXK 121214Z 08006KT 1/2SM +TSRA FG BKN012 OVC055 22/22 A3002 RMK AO2 P0098 T02170217
KTXK 121205Z 04005KT 3/4SM +TSRA BR BKN018 BKN028 OVC055 22/21 A3000 RMK AO2 PRESRR P0052 T02170211
KTXK 121153Z 07008KT 1 3/4SM +TSRA BR BKN018 BKN027 OVC055 22/21 A2997 RMK AO2 RAB1054 TSB30 SLP144 P0134 60134 70134 T02170211 10244 20217 53019
KTXK 121144Z 07007KT 1 1/2SM +TSRA BR BKN016 BKN027 OVC044 22/21 A2997 RMK AO2 RAB1054 TSB30 P0121 T02170211
KTXK 121133Z 04012KT 1SM +TSRA BR FEW006 BKN012 OVC032 22/21 A2996 RMK AO2 RAB1054 TSB30 P0100 T02170211
KTXK 121128Z 06007KT 1/2SM +RA FG BKN008 OVC034 22/21 A2998 RMK AO2 RAB1054 P0092 T02170211
KTXK 121120Z 04011G18KT 010V070 1 1/4SM +RA BR BKN008 BKN027 OVC034 22/21 A2998 RMK AO2 RAB1054 P0047 T02220211
KTXK 121117Z 36009G18KT 2 1/2SM +RA BR SCT006 BKN013 OVC034 22/21 A2998 RMK AO2 RAB1054 P0027 T02220211
KTXK 121110Z 30009G15KT 3SM RA BR FEW009 BKN027 OVC041 22/21 A2997 RMK AO2 RAB1054 P0014 T02220211
KTXK 121053Z 05009KT 10SM OVC014 23/22 A2996 RMK AO2 RAB05E39 PRESRR SLP140 P0000 T02330217
KTXK 121026Z AUTO 06011KT 10SM -RA FEW006 BKN016 OVC060 23/22 A2993 RMK AO2 RAB05 P0000 T02280217 TSNO
KTXK 121019Z AUTO 05010KT 10SM -RA SCT006 BKN060 OVC075 23/22 A2993 RMK AO2 RAB05 P0000 T02330217 TSNO
KTXK 120953Z AUTO VRB03KT 10SM BKN060 OVC075 23/22 A2992 RMK AO2 SLP125 T02330217 TSNO
KTXK 120937Z AUTO 05005KT 10SM SCT060 BKN080 OVC110 23/21 A2992 RMK AO2 LTG DSNT N AND NE T02330211
KTXK 120922Z AUTO VRB03KT 10SM VCTS SCT080 OVC110 24/21 A2992 RMK AO2 LTG DSNT NW-NE T02440211
KTXK 120853Z AUTO 15004KT 10SM CLR 24/21 A2992 RMK AO2 LTG DSNT N AND NE SLP124 T02440211 56017
KTXK 120753Z AUTO 12005KT 10SM BKN120 23/21 A2993 RMK AO2 SLP128 T02330211
KTXK 120653Z AUTO 11003KT 10SM SCT050 BKN060 BKN070 23/21 A2995 RMK AO2 SLP136 T02330211
KTXK 120553Z AUTO 08005KT 10SM BKN060 BKN070 OVC085 24/21 A2997 RMK AO2 SLP141 T02390211 10278 20239 403440239 51016
KTXK 120453Z AUTO VRB03KT 10SM CLR 24/21 A2996 RMK AO2 SLP140 T02390211
KTXK 120353Z AUTO VRB05KT 10SM CLR 24/21 A2996 RMK AO2 SLP138 T02440206
KTXK 120253Z AUTO 12008KT 10SM CLR 25/21 A2992 RMK AO2 SLP125 T02500206 58009
KTXK 120153Z 07005KT 10SM CLR 25/21 A2996 RMK AO2 SLP139 T02500206
KTXK 120053Z 07005KT 10SM CLR 26/21 A2996 RMK AO2 SLP139 T02610211
KTXK 112353Z 05006KT 10SM FEW048 SCT065 28/21 A2994 RMK AO2 SLP134 T02780211 10344 20278 50000
KTXK 112253Z 01010KT 10SM SCT048 BKN060 OVC090 28/21 A2995 RMK AO2 SLP135 T02830211
KTXK 112153Z 23007KT 10SM BKN049 BKN060 33/22 A2995 RMK AO2 SLP136 T03330217
KTXK 112053Z 19010KT 10SM FEW045 FEW055 33/22 A2994 RMK AO2 SLP134 T03330217 56014